sensor_id;sensor_type;location;lat;lon;timestamp;P1;durP1;ratioP1;P2;durP2;ratioP2
10617;SDS011;5356;43.526;26.534;2023-05-19T00:01:05;6.00;;;3.85;;
10617;SDS011;5356;43.526;26.534;2023-05-19T00:03:32;6.95;;;4.43;;
10617;SDS011;5356;43.526;26.534;2023-05-19T00:05:58;10.70;;;4.60;;
10617;SDS011;5356;43.526;26.534;2023-05-19T00:08:27;6.00;;;4.60;;
10617;SDS011;5356;43.526;26.534;2023-05-19T00:10:55;5.18;;;3.70;;
10617;SDS011;5356;43.526;26.534;2023-05-19T00:13:22;8.73;;;4.68;;
10617;SDS011;5356;43.526;26.534;2023-05-19T00:15:48;8.88;;;4.47;;
10617;SDS011;5356;43.526;26.534;2023-05-19T00:18:14;5.05;;;3.70;;
10617;SDS011;5356;43.526;26.534;2023-05-19T00:20:41;6.47;;;4.30;;
10617;SDS011;5356;43.526;26.534;2023-05-19T00:23:07;5.38;;;3.60;;
10617;SDS011;5356;43.526;26.534;2023-05-19T00:25:34;5.45;;;3.72;;
10617;SDS011;5356;43.526;26.534;2023-05-19T00:27:59;8.63;;;4.15;;
10617;SDS011;5356;43.526;26.534;2023-05-19T00:30:26;6.32;;;4.00;;
10617;SDS011;5356;43.526;26.534;2023-05-19T00:32:51;5.15;;;3.65;;
10617;SDS011;5356;43.526;26.534;2023-05-19T00:35:17;7.93;;;4.80;;
10617;SDS011;5356;43.526;26.534;2023-05-19T00:37:44;7.85;;;3.80;;
10617;SDS011;5356;43.526;26.534;2023-05-19T00:40:09;6.32;;;4.30;;
10617;SDS011;5356;43.526;26.534;2023-05-19T00:42:35;9.27;;;4.05;;
10617;SDS011;5356;43.526;26.534;2023-05-19T00:45:01;5.50;;;4.22;;
10617;SDS011;5356;43.526;26.534;2023-05-19T00:47:26;8.77;;;4.22;;
10617;SDS011;5356;43.526;26.534;2023-05-19T00:49:51;7.15;;;4.53;;
10617;SDS011;5356;43.526;26.534;2023-05-19T00:52:17;7.60;;;4.60;;
10617;SDS011;5356;43.526;26.534;2023-05-19T00:54:43;6.97;;;4.25;;
10617;SDS011;5356;43.526;26.534;2023-05-19T00:57:10;7.45;;;4.60;;
10617;SDS011;5356;43.526;26.534;2023-05-19T00:59:37;6.22;;;3.97;;
10617;SDS011;5356;43.526;26.534;2023-05-19T01:02:03;9.13;;;4.05;;
10617;SDS011;5356;43.526;26.534;2023-05-19T01:04:28;7.20;;;4.20;;
10617;SDS011;5356;43.526;26.534;2023-05-19T01:06:59;6.85;;;4.82;;
10617;SDS011;5356;43.526;26.534;2023-05-19T01:09:24;5.90;;;4.25;;
10617;SDS011;5356;43.526;26.534;2023-05-19T01:11:50;6.57;;;4.65;;
10617;SDS011;5356;43.526;26.534;2023-05-19T01:14:16;7.32;;;4.80;;
10617;SDS011;5356;43.526;26.534;2023-05-19T01:16:49;7.60;;;4.97;;
10617;SDS011;5356;43.526;26.534;2023-05-19T01:19:30;6.70;;;4.25;;
10617;SDS011;5356;43.526;26.534;2023-05-19T01:25:11;6.65;;;5.05;;
10617;SDS011;5356;43.526;26.534;2023-05-19T01:31:04;7.57;;;4.40;;
10617;SDS011;5356;43.526;26.534;2023-05-19T01:33:32;7.35;;;4.68;;
10617;SDS011;5356;43.526;26.534;2023-05-19T01:35:59;8.43;;;5.03;;
10617;SDS011;5356;43.526;26.534;2023-05-19T01:38:27;9.18;;;5.18;;
10617;SDS011;5356;43.526;26.534;2023-05-19T01:40:54;8.73;;;4.68;;
10617;SDS011;5356;43.526;26.534;2023-05-19T01:43:22;6.43;;;4.90;;
10617;SDS011;5356;43.526;26.534;2023-05-19T01:45:50;8.60;;;4.72;;
10617;SDS011;5356;43.526;26.534;2023-05-19T01:48:17;7.63;;;5.60;;
10617;SDS011;5356;43.526;26.534;2023-05-19T01:50:44;7.28;;;4.65;;
10617;SDS011;5356;43.526;26.534;2023-05-19T01:53:10;9.95;;;5.57;;
10617;SDS011;5356;43.526;26.534;2023-05-19T01:55:39;7.28;;;4.65;;
10617;SDS011;5356;43.526;26.534;2023-05-19T02:12:18;10.02;;;6.03;;
10617;SDS011;5356;43.526;26.534;2023-05-19T02:14:52;6.75;;;4.47;;
10617;SDS011;5356;43.526;26.534;2023-05-19T02:17:26;11.35;;;4.70;;
10617;SDS011;5356;43.526;26.534;2023-05-19T02:19:57;8.63;;;5.13;;
10617;SDS011;5356;43.526;26.534;2023-05-19T02:22:23;8.95;;;5.05;;
10617;SDS011;5356;43.526;26.534;2023-05-19T02:24:48;8.55;;;5.63;;
10617;SDS011;5356;43.526;26.534;2023-05-19T02:27:15;11.10;;;5.22;;
10617;SDS011;5356;43.526;26.534;2023-05-19T02:29:41;8.43;;;4.85;;
10617;SDS011;5356;43.526;26.534;2023-05-19T02:32:07;7.85;;;5.20;;
10617;SDS011;5356;43.526;26.534;2023-05-19T02:34:32;10.68;;;5.55;;
10617;SDS011;5356;43.526;26.534;2023-05-19T02:36:58;8.48;;;5.65;;
10617;SDS011;5356;43.526;26.534;2023-05-19T02:39:23;10.30;;;6.75;;
10617;SDS011;5356;43.526;26.534;2023-05-19T02:41:50;11.15;;;6.13;;
10617;SDS011;5356;43.526;26.534;2023-05-19T02:44:15;8.38;;;5.70;;
10617;SDS011;5356;43.526;26.534;2023-05-19T02:46:41;8.52;;;5.57;;
10617;SDS011;5356;43.526;26.534;2023-05-19T02:49:06;8.65;;;6.47;;
10617;SDS011;5356;43.526;26.534;2023-05-19T02:51:31;10.35;;;6.13;;
10617;SDS011;5356;43.526;26.534;2023-05-19T02:53:57;8.25;;;5.90;;
10617;SDS011;5356;43.526;26.534;2023-05-19T02:56:22;9.65;;;6.68;;
10617;SDS011;5356;43.526;26.534;2023-05-19T02:58:48;10.13;;;6.68;;
10617;SDS011;5356;43.526;26.534;2023-05-19T03:01:13;10.05;;;6.20;;
10617;SDS011;5356;43.526;26.534;2023-05-19T03:03:39;8.13;;;5.75;;
10617;SDS011;5356;43.526;26.534;2023-05-19T03:06:05;9.48;;;5.93;;
10617;SDS011;5356;43.526;26.534;2023-05-19T03:08:34;8.38;;;5.65;;
10617;SDS011;5356;43.526;26.534;2023-05-19T03:11:00;12.38;;;6.60;;
10617;SDS011;5356;43.526;26.534;2023-05-19T03:13:26;12.68;;;6.90;;
10617;SDS011;5356;43.526;26.534;2023-05-19T03:15:52;11.25;;;6.18;;
10617;SDS011;5356;43.526;26.534;2023-05-19T03:18:20;13.45;;;6.43;;
10617;SDS011;5356;43.526;26.534;2023-05-19T03:20:48;11.02;;;6.28;;
10617;SDS011;5356;43.526;26.534;2023-05-19T03:23:14;13.02;;;7.18;;
10617;SDS011;5356;43.526;26.534;2023-05-19T03:25:39;11.02;;;6.60;;
10617;SDS011;5356;43.526;26.534;2023-05-19T03:28:05;10.05;;;6.60;;
10617;SDS011;5356;43.526;26.534;2023-05-19T03:30:30;12.20;;;6.53;;
10617;SDS011;5356;43.526;26.534;2023-05-19T03:32:56;11.35;;;6.63;;
10617;SDS011;5356;43.526;26.534;2023-05-19T03:35:21;10.20;;;6.40;;
10617;SDS011;5356;43.526;26.534;2023-05-19T03:37:48;11.23;;;7.50;;
10617;SDS011;5356;43.526;26.534;2023-05-19T03:40:13;9.77;;;5.80;;
10617;SDS011;5356;43.526;26.534;2023-05-19T03:42:39;11.85;;;6.55;;
10617;SDS011;5356;43.526;26.534;2023-05-19T03:45:05;11.52;;;6.55;;
10617;SDS011;5356;43.526;26.534;2023-05-19T03:47:31;9.57;;;6.35;;
10617;SDS011;5356;43.526;26.534;2023-05-19T03:49:56;9.90;;;6.72;;
10617;SDS011;5356;43.526;26.534;2023-05-19T03:52:22;9.13;;;6.20;;
10617;SDS011;5356;43.526;26.534;2023-05-19T03:54:47;9.63;;;6.05;;
10617;SDS011;5356;43.526;26.534;2023-05-19T03:57:13;9.80;;;6.10;;
10617;SDS011;5356;43.526;26.534;2023-05-19T03:59:38;9.75;;;6.40;;
10617;SDS011;5356;43.526;26.534;2023-05-19T04:02:05;10.57;;;6.53;;
10617;SDS011;5356;43.526;26.534;2023-05-19T04:04:31;11.43;;;6.65;;
10617;SDS011;5356;43.526;26.534;2023-05-19T04:06:56;8.88;;;6.38;;
10617;SDS011;5356;43.526;26.534;2023-05-19T04:09:22;11.93;;;6.70;;
10617;SDS011;5356;43.526;26.534;2023-05-19T04:11:50;14.30;;;7.22;;
10617;SDS011;5356;43.526;26.534;2023-05-19T04:14:22;13.00;;;6.85;;
10617;SDS011;5356;43.526;26.534;2023-05-19T04:16:48;11.57;;;6.45;;
10617;SDS011;5356;43.526;26.534;2023-05-19T04:19:25;14.10;;;8.07;;
10617;SDS011;5356;43.526;26.534;2023-05-19T04:21:51;10.88;;;7.28;;
10617;SDS011;5356;43.526;26.534;2023-05-19T04:25:12;13.95;;;6.75;;
10617;SDS011;5356;43.526;26.534;2023-05-19T04:27:38;12.02;;;7.70;;
10617;SDS011;5356;43.526;26.534;2023-05-19T04:30:04;10.07;;;6.95;;
10617;SDS011;5356;43.526;26.534;2023-05-19T04:32:30;15.00;;;8.07;;
10617;SDS011;5356;43.526;26.534;2023-05-19T04:35:00;10.93;;;7.80;;
10617;SDS011;5356;43.526;26.534;2023-05-19T04:37:58;12.88;;;8.07;;
10617;SDS011;5356;43.526;26.534;2023-05-19T04:40:27;15.00;;;8.30;;
10617;SDS011;5356;43.526;26.534;2023-05-19T04:53:28;15.00;;;8.38;;
10617;SDS011;5356;43.526;26.534;2023-05-19T04:56:45;14.35;;;8.45;;
10617;SDS011;5356;43.526;26.534;2023-05-19T05:00:17;18.25;;;9.02;;
10617;SDS011;5356;43.526;26.534;2023-05-19T05:24:13;18.65;;;11.25;;
10617;SDS011;5356;43.526;26.534;2023-05-19T06:02:49;24.02;;;10.55;;
10617;SDS011;5356;43.526;26.534;2023-05-19T06:12:49;16.25;;;9.48;;
10617;SDS011;5356;43.526;26.534;2023-05-19T06:15:58;19.13;;;10.52;;
10617;SDS011;5356;43.526;26.534;2023-05-19T06:18:40;22.42;;;11.85;;
10617;SDS011;5356;43.526;26.534;2023-05-19T06:21:26;18.45;;;9.85;;
10617;SDS011;5356;43.526;26.534;2023-05-19T06:23:55;18.85;;;9.88;;
10617;SDS011;5356;43.526;26.534;2023-05-19T06:26:21;19.83;;;9.93;;
10617;SDS011;5356;43.526;26.534;2023-05-19T06:28:46;21.90;;;10.52;;
10617;SDS011;5356;43.526;26.534;2023-05-19T06:31:12;21.08;;;10.80;;
10617;SDS011;5356;43.526;26.534;2023-05-19T06:33:38;15.68;;;9.77;;
10617;SDS011;5356;43.526;26.534;2023-05-19T06:36:04;18.48;;;9.95;;
10617;SDS011;5356;43.526;26.534;2023-05-19T06:38:34;15.32;;;9.02;;
10617;SDS011;5356;43.526;26.534;2023-05-19T06:40:59;23.00;;;10.95;;
10617;SDS011;5356;43.526;26.534;2023-05-19T06:43:25;18.73;;;10.40;;
10617;SDS011;5356;43.526;26.534;2023-05-19T06:45:50;17.35;;;10.65;;
10617;SDS011;5356;43.526;26.534;2023-05-19T06:48:16;19.13;;;9.38;;
10617;SDS011;5356;43.526;26.534;2023-05-19T06:50:48;14.85;;;9.02;;
10617;SDS011;5356;43.526;26.534;2023-05-19T06:53:18;19.38;;;9.82;;
10617;SDS011;5356;43.526;26.534;2023-05-19T06:55:53;16.40;;;9.52;;
10617;SDS011;5356;43.526;26.534;2023-05-19T06:59:04;13.98;;;9.77;;
10617;SDS011;5356;43.526;26.534;2023-05-19T07:01:51;18.85;;;10.10;;
10617;SDS011;5356;43.526;26.534;2023-05-19T07:10:39;13.55;;;9.38;;
10617;SDS011;5356;43.526;26.534;2023-05-19T07:13:19;15.45;;;8.88;;
10617;SDS011;5356;43.526;26.534;2023-05-19T07:16:08;15.82;;;8.55;;
10617;SDS011;5356;43.526;26.534;2023-05-19T07:19:00;25.25;;;11.95;;
10617;SDS011;5356;43.526;26.534;2023-05-19T07:35:29;30.20;;;10.40;;
10617;SDS011;5356;43.526;26.534;2023-05-19T07:38:14;12.25;;;7.70;;
10617;SDS011;5356;43.526;26.534;2023-05-19T07:41:12;15.73;;;9.18;;
10617;SDS011;5356;43.526;26.534;2023-05-19T07:43:41;11.93;;;8.48;;
10617;SDS011;5356;43.526;26.534;2023-05-19T07:49:26;13.52;;;8.55;;
10617;SDS011;5356;43.526;26.534;2023-05-19T07:52:54;16.23;;;9.13;;
10617;SDS011;5356;43.526;26.534;2023-05-19T07:55:33;15.63;;;9.43;;
10617;SDS011;5356;43.526;26.534;2023-05-19T07:58:18;16.08;;;8.55;;
10617;SDS011;5356;43.526;26.534;2023-05-19T08:00:59;10.10;;;7.70;;
10617;SDS011;5356;43.526;26.534;2023-05-19T08:04:11;15.20;;;9.00;;
10617;SDS011;5356;43.526;26.534;2023-05-19T08:06:45;16.63;;;9.20;;
10617;SDS011;5356;43.526;26.534;2023-05-19T08:09:24;24.05;;;11.32;;
10617;SDS011;5356;43.526;26.534;2023-05-19T08:12:20;11.60;;;7.63;;
10617;SDS011;5356;43.526;26.534;2023-05-19T08:14:49;12.00;;;7.95;;
10617;SDS011;5356;43.526;26.534;2023-05-19T08:17:21;19.92;;;10.25;;
10617;SDS011;5356;43.526;26.534;2023-05-19T08:23:11;78.80;;;20.55;;
10617;SDS011;5356;43.526;26.534;2023-05-19T08:25:37;16.38;;;8.98;;
10617;SDS011;5356;43.526;26.534;2023-05-19T08:28:02;11.65;;;7.45;;
10617;SDS011;5356;43.526;26.534;2023-05-19T08:30:28;10.77;;;6.57;;
10617;SDS011;5356;43.526;26.534;2023-05-19T08:32:53;10.02;;;6.50;;
10617;SDS011;5356;43.526;26.534;2023-05-19T08:35:19;9.77;;;7.15;;
10617;SDS011;5356;43.526;26.534;2023-05-19T08:37:44;16.40;;;8.43;;
10617;SDS011;5356;43.526;26.534;2023-05-19T08:40:10;15.65;;;8.60;;
10617;SDS011;5356;43.526;26.534;2023-05-19T08:42:41;14.00;;;7.10;;
10617;SDS011;5356;43.526;26.534;2023-05-19T08:45:07;11.30;;;7.10;;
10617;SDS011;5356;43.526;26.534;2023-05-19T08:47:35;12.35;;;7.22;;
10617;SDS011;5356;43.526;26.534;2023-05-19T08:50:04;11.40;;;7.60;;
10617;SDS011;5356;43.526;26.534;2023-05-19T08:55:14;16.65;;;7.63;;
10617;SDS011;5356;43.526;26.534;2023-05-19T08:57:51;12.27;;;7.18;;
10617;SDS011;5356;43.526;26.534;2023-05-19T09:00:21;13.80;;;7.90;;
10617;SDS011;5356;43.526;26.534;2023-05-19T09:02:50;8.13;;;6.50;;
10617;SDS011;5356;43.526;26.534;2023-05-19T09:05:18;11.73;;;7.18;;
10617;SDS011;5356;43.526;26.534;2023-05-19T09:07:44;9.15;;;7.03;;
10617;SDS011;5356;43.526;26.534;2023-05-19T09:10:11;10.30;;;7.13;;
10617;SDS011;5356;43.526;26.534;2023-05-19T09:12:43;16.95;;;9.23;;
10617;SDS011;5356;43.526;26.534;2023-05-19T09:15:10;11.88;;;7.70;;
10617;SDS011;5356;43.526;26.534;2023-05-19T09:17:39;10.02;;;7.00;;
10617;SDS011;5356;43.526;26.534;2023-05-19T09:20:05;10.98;;;6.78;;
10617;SDS011;5356;43.526;26.534;2023-05-19T09:22:41;11.48;;;7.00;;
10617;SDS011;5356;43.526;26.534;2023-05-19T09:25:23;15.07;;;7.43;;
10617;SDS011;5356;43.526;26.534;2023-05-19T09:27:49;15.27;;;7.53;;
10617;SDS011;5356;43.526;26.534;2023-05-19T09:30:15;9.30;;;6.88;;
10617;SDS011;5356;43.526;26.534;2023-05-19T09:32:42;11.98;;;6.75;;
10617;SDS011;5356;43.526;26.534;2023-05-19T09:35:07;10.45;;;6.05;;
10617;SDS011;5356;43.526;26.534;2023-05-19T09:37:33;9.50;;;6.57;;
10617;SDS011;5356;43.526;26.534;2023-05-19T09:39:59;12.38;;;6.53;;
10617;SDS011;5356;43.526;26.534;2023-05-19T09:42:24;14.63;;;7.63;;
10617;SDS011;5356;43.526;26.534;2023-05-19T09:45:03;11.90;;;7.28;;
10617;SDS011;5356;43.526;26.534;2023-05-19T09:47:35;19.20;;;8.95;;
10617;SDS011;5356;43.526;26.534;2023-05-19T09:50:05;19.40;;;9.63;;
10617;SDS011;5356;43.526;26.534;2023-05-19T09:52:36;16.20;;;7.68;;
10617;SDS011;5356;43.526;26.534;2023-05-19T09:55:03;11.20;;;7.25;;
10617;SDS011;5356;43.526;26.534;2023-05-19T09:57:35;12.93;;;6.93;;
10617;SDS011;5356;43.526;26.534;2023-05-19T10:00:05;15.75;;;8.70;;
10617;SDS011;5356;43.526;26.534;2023-05-19T10:02:45;18.20;;;9.15;;
10617;SDS011;5356;43.526;26.534;2023-05-19T10:05:12;12.80;;;7.85;;
10617;SDS011;5356;43.526;26.534;2023-05-19T10:07:44;11.52;;;7.75;;
10617;SDS011;5356;43.526;26.534;2023-05-19T10:10:17;16.98;;;7.72;;
10617;SDS011;5356;43.526;26.534;2023-05-19T10:12:46;9.32;;;6.95;;
10617;SDS011;5356;43.526;26.534;2023-05-19T10:15:16;10.18;;;6.38;;
10617;SDS011;5356;43.526;26.534;2023-05-19T10:17:43;11.88;;;7.22;;
10617;SDS011;5356;43.526;26.534;2023-05-19T10:20:10;14.00;;;7.57;;
10617;SDS011;5356;43.526;26.534;2023-05-19T10:22:40;16.65;;;7.13;;
10617;SDS011;5356;43.526;26.534;2023-05-19T10:25:07;8.75;;;6.00;;
10617;SDS011;5356;43.526;26.534;2023-05-19T10:27:53;10.35;;;6.75;;
10617;SDS011;5356;43.526;26.534;2023-05-19T10:30:25;11.38;;;5.90;;
10617;SDS011;5356;43.526;26.534;2023-05-19T10:32:55;12.90;;;7.38;;
10617;SDS011;5356;43.526;26.534;2023-05-19T10:46:31;15.20;;;8.52;;
10617;SDS011;5356;43.526;26.534;2023-05-19T10:48:57;20.17;;;10.10;;
10617;SDS011;5356;43.526;26.534;2023-05-19T10:51:29;7.65;;;6.35;;
10617;SDS011;5356;43.526;26.534;2023-05-19T10:53:56;9.90;;;6.93;;
10617;SDS011;5356;43.526;26.534;2023-05-19T10:56:31;10.38;;;7.07;;
10617;SDS011;5356;43.526;26.534;2023-05-19T10:59:00;14.35;;;6.53;;
10617;SDS011;5356;43.526;26.534;2023-05-19T11:01:31;9.57;;;6.88;;
10617;SDS011;5356;43.526;26.534;2023-05-19T11:04:08;12.77;;;7.07;;
10617;SDS011;5356;43.526;26.534;2023-05-19T11:06:39;9.27;;;6.20;;
10617;SDS011;5356;43.526;26.534;2023-05-19T11:09:16;11.93;;;6.82;;
10617;SDS011;5356;43.526;26.534;2023-05-19T11:11:49;11.65;;;6.30;;
10617;SDS011;5356;43.526;26.534;2023-05-19T11:14:27;9.93;;;6.50;;
10617;SDS011;5356;43.526;26.534;2023-05-19T11:16:56;20.63;;;9.95;;
10617;SDS011;5356;43.526;26.534;2023-05-19T11:19:29;9.95;;;6.55;;
10617;SDS011;5356;43.526;26.534;2023-05-19T11:21:56;8.75;;;6.53;;
10617;SDS011;5356;43.526;26.534;2023-05-19T11:24:36;10.00;;;6.30;;
10617;SDS011;5356;43.526;26.534;2023-05-19T11:29:58;14.70;;;7.88;;
10617;SDS011;5356;43.526;26.534;2023-05-19T11:32:30;14.55;;;7.47;;
10617;SDS011;5356;43.526;26.534;2023-05-19T11:35:00;9.70;;;6.55;;
10617;SDS011;5356;43.526;26.534;2023-05-19T11:37:26;10.65;;;6.88;;
10617;SDS011;5356;43.526;26.534;2023-05-19T11:39:56;18.63;;;8.32;;
10617;SDS011;5356;43.526;26.534;2023-05-19T11:42:22;10.00;;;7.38;;
10617;SDS011;5356;43.526;26.534;2023-05-19T11:44:48;10.15;;;6.05;;
10617;SDS011;5356;43.526;26.534;2023-05-19T11:47:14;13.20;;;6.57;;
10617;SDS011;5356;43.526;26.534;2023-05-19T11:49:44;9.65;;;6.18;;
10617;SDS011;5356;43.526;26.534;2023-05-19T11:52:12;9.50;;;6.22;;
10617;SDS011;5356;43.526;26.534;2023-05-19T11:54:38;11.00;;;5.78;;
10617;SDS011;5356;43.526;26.534;2023-05-19T11:57:07;10.25;;;5.95;;
10617;SDS011;5356;43.526;26.534;2023-05-19T11:59:35;9.25;;;6.60;;
10617;SDS011;5356;43.526;26.534;2023-05-19T12:02:24;9.18;;;6.50;;
10617;SDS011;5356;43.526;26.534;2023-05-19T12:04:50;9.65;;;6.18;;
10617;SDS011;5356;43.526;26.534;2023-05-19T12:07:17;9.48;;;6.20;;
10617;SDS011;5356;43.526;26.534;2023-05-19T12:09:47;10.10;;;6.15;;
10617;SDS011;5356;43.526;26.534;2023-05-19T12:12:17;7.18;;;5.55;;
10617;SDS011;5356;43.526;26.534;2023-05-19T12:14:50;9.18;;;5.95;;
10617;SDS011;5356;43.526;26.534;2023-05-19T12:17:17;10.02;;;5.43;;
10617;SDS011;5356;43.526;26.534;2023-05-19T12:19:45;9.00;;;5.55;;
10617;SDS011;5356;43.526;26.534;2023-05-19T12:22:12;6.97;;;4.95;;
10617;SDS011;5356;43.526;26.534;2023-05-19T12:24:39;9.60;;;6.28;;
10617;SDS011;5356;43.526;26.534;2023-05-19T12:27:10;9.48;;;4.88;;
10617;SDS011;5356;43.526;26.534;2023-05-19T12:29:47;10.30;;;5.18;;
10617;SDS011;5356;43.526;26.534;2023-05-19T12:32:14;9.55;;;4.85;;
10617;SDS011;5356;43.526;26.534;2023-05-19T12:34:40;9.75;;;4.93;;
10617;SDS011;5356;43.526;26.534;2023-05-19T12:37:05;6.30;;;4.70;;
10617;SDS011;5356;43.526;26.534;2023-05-19T12:39:31;6.80;;;4.75;;
10617;SDS011;5356;43.526;26.534;2023-05-19T12:42:16;5.78;;;4.32;;
10617;SDS011;5356;43.526;26.534;2023-05-19T12:47:10;5.10;;;3.65;;
10617;SDS011;5356;43.526;26.534;2023-05-19T12:49:36;5.03;;;3.75;;
10617;SDS011;5356;43.526;26.534;2023-05-19T12:52:01;9.27;;;4.80;;
10617;SDS011;5356;43.526;26.534;2023-05-19T12:54:31;7.93;;;4.40;;
10617;SDS011;5356;43.526;26.534;2023-05-19T12:56:58;5.75;;;4.22;;
10617;SDS011;5356;43.526;26.534;2023-05-19T12:59:23;12.20;;;6.22;;
10617;SDS011;5356;43.526;26.534;2023-05-19T13:01:58;6.18;;;4.43;;
10617;SDS011;5356;43.526;26.534;2023-05-19T13:04:24;7.75;;;5.22;;
10617;SDS011;5356;43.526;26.534;2023-05-19T13:06:51;12.07;;;6.32;;
10617;SDS011;5356;43.526;26.534;2023-05-19T13:09:17;17.88;;;7.03;;
10617;SDS011;5356;43.526;26.534;2023-05-19T13:11:44;8.65;;;5.72;;
10617;SDS011;5356;43.526;26.534;2023-05-19T13:14:15;9.23;;;6.05;;
10617;SDS011;5356;43.526;26.534;2023-05-19T13:16:43;8.48;;;5.57;;
10617;SDS011;5356;43.526;26.534;2023-05-19T13:19:10;12.63;;;7.50;;
10617;SDS011;5356;43.526;26.534;2023-05-19T13:21:41;11.27;;;6.35;;
10617;SDS011;5356;43.526;26.534;2023-05-19T13:24:07;18.92;;;7.28;;
10617;SDS011;5356;43.526;26.534;2023-05-19T13:26:33;16.58;;;8.60;;
10617;SDS011;5356;43.526;26.534;2023-05-19T13:28:59;7.60;;;4.85;;
10617;SDS011;5356;43.526;26.534;2023-05-19T13:31:26;9.75;;;5.70;;
10617;SDS011;5356;43.526;26.534;2023-05-19T13:33:51;11.75;;;6.53;;
10617;SDS011;5356;43.526;26.534;2023-05-19T13:36:18;6.05;;;4.70;;
10617;SDS011;5356;43.526;26.534;2023-05-19T13:38:43;7.63;;;4.45;;
10617;SDS011;5356;43.526;26.534;2023-05-19T13:41:09;13.57;;;6.00;;
10617;SDS011;5356;43.526;26.534;2023-05-19T13:43:35;6.90;;;4.95;;
10617;SDS011;5356;43.526;26.534;2023-05-19T13:46:00;9.02;;;4.63;;
10617;SDS011;5356;43.526;26.534;2023-05-19T13:48:26;7.88;;;4.88;;
10617;SDS011;5356;43.526;26.534;2023-05-19T13:50:51;8.75;;;5.05;;
10617;SDS011;5356;43.526;26.534;2023-05-19T13:53:20;6.50;;;4.20;;
10617;SDS011;5356;43.526;26.534;2023-05-19T13:55:46;10.90;;;5.03;;
10617;SDS011;5356;43.526;26.534;2023-05-19T13:58:16;18.38;;;7.60;;
10617;SDS011;5356;43.526;26.534;2023-05-19T14:00:42;8.85;;;4.70;;
10617;SDS011;5356;43.526;26.534;2023-05-19T14:03:19;7.70;;;4.72;;
10617;SDS011;5356;43.526;26.534;2023-05-19T14:05:48;10.73;;;5.95;;
10617;SDS011;5356;43.526;26.534;2023-05-19T14:08:14;15.98;;;8.68;;
10617;SDS011;5356;43.526;26.534;2023-05-19T14:10:50;9.55;;;4.60;;
10617;SDS011;5356;43.526;26.534;2023-05-19T14:13:16;5.75;;;3.90;;
10617;SDS011;5356;43.526;26.534;2023-05-19T14:15:41;7.38;;;4.00;;
10617;SDS011;5356;43.526;26.534;2023-05-19T14:18:10;9.05;;;5.97;;
10617;SDS011;5356;43.526;26.534;2023-05-19T14:20:38;12.02;;;4.85;;
10617;SDS011;5356;43.526;26.534;2023-05-19T14:23:03;8.82;;;4.50;;
10617;SDS011;5356;43.526;26.534;2023-05-19T14:25:32;7.55;;;4.20;;
10617;SDS011;5356;43.526;26.534;2023-05-19T14:27:58;5.60;;;4.20;;
10617;SDS011;5356;43.526;26.534;2023-05-19T14:30:26;5.40;;;3.75;;
10617;SDS011;5356;43.526;26.534;2023-05-19T14:32:52;5.57;;;3.80;;
10617;SDS011;5356;43.526;26.534;2023-05-19T14:35:17;4.97;;;3.30;;
10617;SDS011;5356;43.526;26.534;2023-05-19T14:37:43;7.20;;;4.40;;
10617;SDS011;5356;43.526;26.534;2023-05-19T14:40:10;5.18;;;3.55;;
10617;SDS011;5356;43.526;26.534;2023-05-19T14:42:36;5.50;;;3.70;;
10617;SDS011;5356;43.526;26.534;2023-05-19T14:45:01;13.68;;;4.90;;
10617;SDS011;5356;43.526;26.534;2023-05-19T14:47:27;7.57;;;3.70;;
10617;SDS011;5356;43.526;26.534;2023-05-19T14:49:58;6.40;;;4.82;;
10617;SDS011;5356;43.526;26.534;2023-05-19T14:52:24;8.13;;;4.32;;
10617;SDS011;5356;43.526;26.534;2023-05-19T14:54:50;7.60;;;4.35;;
10617;SDS011;5356;43.526;26.534;2023-05-19T14:57:15;5.50;;;3.90;;
10617;SDS011;5356;43.526;26.534;2023-05-19T14:59:41;6.75;;;4.00;;
10617;SDS011;5356;43.526;26.534;2023-05-19T15:02:06;6.88;;;4.20;;
10617;SDS011;5356;43.526;26.534;2023-05-19T15:04:32;8.57;;;3.75;;
10617;SDS011;5356;43.526;26.534;2023-05-19T15:06:58;7.57;;;4.60;;
10617;SDS011;5356;43.526;26.534;2023-05-19T15:09:23;6.90;;;4.10;;
10617;SDS011;5356;43.526;26.534;2023-05-19T15:11:49;7.10;;;4.40;;
10617;SDS011;5356;43.526;26.534;2023-05-19T15:14:14;6.28;;;4.05;;
10617;SDS011;5356;43.526;26.534;2023-05-19T15:16:40;8.15;;;4.50;;
10617;SDS011;5356;43.526;26.534;2023-05-19T15:19:11;8.60;;;4.70;;
10617;SDS011;5356;43.526;26.534;2023-05-19T15:21:36;6.97;;;5.10;;
10617;SDS011;5356;43.526;26.534;2023-05-19T15:24:02;9.60;;;4.75;;
10617;SDS011;5356;43.526;26.534;2023-05-19T15:26:31;10.05;;;4.90;;
10617;SDS011;5356;43.526;26.534;2023-05-19T15:28:57;7.43;;;4.68;;
10617;SDS011;5356;43.526;26.534;2023-05-19T15:31:23;14.45;;;4.50;;
10617;SDS011;5356;43.526;26.534;2023-05-19T15:33:48;13.88;;;4.82;;
10617;SDS011;5356;43.526;26.534;2023-05-19T15:36:14;7.18;;;4.05;;
10617;SDS011;5356;43.526;26.534;2023-05-19T15:38:41;17.40;;;5.20;;
10617;SDS011;5356;43.526;26.534;2023-05-19T15:41:06;11.75;;;6.20;;
10617;SDS011;5356;43.526;26.534;2023-05-19T15:43:32;7.70;;;5.20;;
10617;SDS011;5356;43.526;26.534;2023-05-19T15:45:58;6.80;;;4.25;;
10617;SDS011;5356;43.526;26.534;2023-05-19T15:48:23;10.38;;;5.10;;
10617;SDS011;5356;43.526;26.534;2023-05-19T15:50:53;5.25;;;4.18;;
10617;SDS011;5356;43.526;26.534;2023-05-19T15:53:22;7.15;;;4.07;;
10617;SDS011;5356;43.526;26.534;2023-05-19T15:55:48;13.48;;;5.30;;
10617;SDS011;5356;43.526;26.534;2023-05-19T15:58:14;11.73;;;4.95;;
10617;SDS011;5356;43.526;26.534;2023-05-19T16:00:40;5.97;;;4.35;;
10617;SDS011;5356;43.526;26.534;2023-05-19T16:03:06;5.45;;;4.15;;
10617;SDS011;5356;43.526;26.534;2023-05-19T16:05:31;8.95;;;4.38;;
10617;SDS011;5356;43.526;26.534;2023-05-19T16:07:57;6.55;;;5.13;;
10617;SDS011;5356;43.526;26.534;2023-05-19T16:10:22;7.20;;;4.55;;
10617;SDS011;5356;43.526;26.534;2023-05-19T16:12:48;9.70;;;4.90;;
10617;SDS011;5356;43.526;26.534;2023-05-19T16:15:13;8.00;;;4.68;;
10617;SDS011;5356;43.526;26.534;2023-05-19T16:17:39;6.10;;;4.75;;
10617;SDS011;5356;43.526;26.534;2023-05-19T16:20:05;5.97;;;3.95;;
10617;SDS011;5356;43.526;26.534;2023-05-19T16:22:31;6.78;;;4.88;;
10617;SDS011;5356;43.526;26.534;2023-05-19T16:24:57;8.40;;;4.50;;
10617;SDS011;5356;43.526;26.534;2023-05-19T16:27:22;8.85;;;5.55;;
10617;SDS011;5356;43.526;26.534;2023-05-19T16:29:48;9.32;;;4.70;;
10617;SDS011;5356;43.526;26.534;2023-05-19T16:32:13;7.65;;;5.38;;
10617;SDS011;5356;43.526;26.534;2023-05-19T16:34:39;11.50;;;5.05;;
10617;SDS011;5356;43.526;26.534;2023-05-19T16:37:07;9.65;;;5.22;;
10617;SDS011;5356;43.526;26.534;2023-05-19T16:39:34;7.55;;;4.78;;
10617;SDS011;5356;43.526;26.534;2023-05-19T16:42:00;13.88;;;5.35;;
10617;SDS011;5356;43.526;26.534;2023-05-19T16:44:26;8.00;;;4.88;;
10617;SDS011;5356;43.526;26.534;2023-05-19T16:46:52;5.93;;;4.40;;
10617;SDS011;5356;43.526;26.534;2023-05-19T16:49:17;9.68;;;5.53;;
10617;SDS011;5356;43.526;26.534;2023-05-19T16:51:46;7.00;;;4.57;;
10617;SDS011;5356;43.526;26.534;2023-05-19T16:54:22;6.72;;;4.95;;
10617;SDS011;5356;43.526;26.534;2023-05-19T16:57:03;6.68;;;4.68;;
10617;SDS011;5356;43.526;26.534;2023-05-19T16:59:36;8.95;;;4.07;;
10617;SDS011;5356;43.526;26.534;2023-05-19T17:02:11;6.72;;;5.30;;
10617;SDS011;5356;43.526;26.534;2023-05-19T17:08:38;6.20;;;4.68;;
10617;SDS011;5356;43.526;26.534;2023-05-19T17:11:36;6.57;;;4.28;;
10617;SDS011;5356;43.526;26.534;2023-05-19T17:15:08;8.13;;;4.18;;
10617;SDS011;5356;43.526;26.534;2023-05-19T17:18:07;7.97;;;4.80;;
10617;SDS011;5356;43.526;26.534;2023-05-19T17:20:38;8.35;;;5.07;;
10617;SDS011;5356;43.526;26.534;2023-05-19T17:26:30;11.30;;;6.25;;